PWSweather.com
Personal Weather Stations
Station Observations
GEELONGWX1
Bell Post Hill, GeelongAU

Bell Post HillGeelongAU

Lat: -38.101, Lon: 144.326

Elevation: 204

Station Type: Davis Vantage Pro2

http://www.geelongweather.com

High Low Average
Temperature 51.5°F10.8°F 39.5°F4.2°F 45.1°F7.3°F
Dew Point 42.2°F5.7°F 32.5°F0.3°F 37.9°F3.3°F
Winds 18.4 mph SW29.6 mph SW Calm Calm 5.6 mph 9.0 mph
Wind Gusts 27.6 mph44.4 mph -- 9.7 mph15.6 mph
Humidity 89% 53% 77%
Pressure 30.32 in1026.80 in 29.90 in1012.50 in -
Precipitation 0.09 in2.30 in - -
Hour Temp Dew Point Humidity Winds Wind Gusts Pressure Precip Precip Rate Daily Precip Total
12:00 AM 47.1°F8.4°C 41.2°F5.1°C 80% 12.7 mph SW20.4 kmh SW 19.6 mph31.5 kmh 29.91 in1012.9 mb - 0.00 in0.0 mm 0.00 in0.0 mm
12:10 AM 47.1°F8.4°C 41.2°F5.1°C 80% 15.0 mph SW24.1 kmh SW 23.0 mph37.0 kmh 29.91 in1012.9 mb - 0.00 in0.0 mm 0.00 in0.0 mm
12:20 AM 47.2°F8.4°C 41.0°F5.0°C 79% 12.7 mph SW20.4 kmh SW 19.6 mph31.5 kmh 29.91 in1012.9 mb - 0.00 in0.0 mm 0.00 in0.0 mm
12:30 AM 47.4°F8.6°C 41.2°F5.1°C 79% 13.8 mph SW22.2 kmh SW 26.5 mph42.6 kmh 29.91 in1012.9 mb - 0.00 in0.0 mm 0.00 in0.0 mm
12:40 AM 47.4°F8.6°C 41.2°F5.1°C 79% 12.7 mph SW20.4 kmh SW 19.6 mph31.5 kmh 29.91 in1012.9 mb - 0.00 in0.0 mm 0.00 in0.0 mm
12:50 AM 47.5°F8.6°C 41.3°F5.2°C 79% 13.8 mph SW22.2 kmh SW 21.9 mph35.2 kmh 29.91 in1012.9 mb - 0.00 in0.0 mm 0.00 in0.0 mm
01:00 AM 47.5°F8.6°C 41.3°F5.2°C 79% 12.7 mph SW20.4 kmh SW 27.6 mph44.4 kmh 29.91 in1012.9 mb - 0.00 in0.0 mm 0.00 in0.0 mm
01:10 AM 47.4°F8.6°C 41.2°F5.1°C 79% 12.7 mph SW20.4 kmh SW 21.9 mph35.2 kmh 29.90 in1012.5 mb - 0.00 in0.0 mm 0.00 in0.0 mm
01:20 AM 47.2°F8.4°C 41.0°F5.0°C 79% 13.8 mph SW22.2 kmh SW 21.9 mph35.2 kmh 29.91 in1012.9 mb - 0.00 in0.0 mm 0.00 in0.0 mm
01:30 AM 47.2°F8.4°C 41.0°F5.0°C 79% 10.4 mph SW16.7 kmh SW 17.3 mph27.8 kmh 29.91 in1012.9 mb - 0.00 in0.0 mm 0.00 in0.0 mm
01:40 AM 47.3°F8.5°C 41.4°F5.2°C 80% 10.4 mph SSW16.7 kmh SSW 18.4 mph29.6 kmh 29.91 in1012.9 mb - 0.00 in0.0 mm 0.00 in0.0 mm
01:50 AM 47.4°F8.6°C 41.5°F5.3°C 80% 9.2 mph SW14.8 kmh SW 19.6 mph31.5 kmh 29.91 in1012.9 mb - 0.00 in0.0 mm 0.00 in0.0 mm
02:00 AM 47.5°F8.6°C 41.3°F5.2°C 79% 18.4 mph SW29.6 kmh SW 23.0 mph37.0 kmh 29.92 in1013.2 mb - 0.00 in0.0 mm 0.00 in0.0 mm
02:10 AM 47.6°F8.7°C 41.7°F5.4°C 80% 9.2 mph SW14.8 kmh SW 12.7 mph20.4 kmh 29.92 in1013.2 mb - 0.00 in0.0 mm 0.00 in0.0 mm
02:20 AM 47.7°F8.7°C 41.8°F5.4°C 80% 11.5 mph SW18.5 kmh SW 20.7 mph33.3 kmh 29.93 in1013.5 mb - 0.00 in0.0 mm 0.00 in0.0 mm
02:30 AM 47.5°F8.6°C 41.6°F5.3°C 80% 12.7 mph SW20.4 kmh SW 25.3 mph40.7 kmh 29.92 in1013.2 mb - 0.00 in0.0 mm 0.00 in0.0 mm
02:40 AM 47.2°F8.4°C 41.7°F5.4°C 81% 13.8 mph SW22.2 kmh SW 19.6 mph31.5 kmh 29.92 in1013.2 mb - 0.00 in0.0 mm 0.00 in0.0 mm
02:50 AM 47.2°F8.4°C 41.9°F5.5°C 82% 12.7 mph SSW20.4 kmh SSW 21.9 mph35.2 kmh 29.93 in1013.5 mb - 0.00 in0.0 mm 0.00 in0.0 mm
03:00 AM 46.9°F8.3°C 42.0°F5.6°C 83% 11.5 mph SW18.5 kmh SW 20.7 mph33.3 kmh 29.93 in1013.5 mb - 0.00 in0.0 mm 0.00 in0.0 mm
03:10 AM 46.6°F8.1°C 41.7°F5.4°C 83% 11.5 mph SSW18.5 kmh SSW 23.0 mph37.0 kmh 29.93 in1013.5 mb - 0.00 in0.0 mm 0.00 in0.0 mm
03:20 AM 46.3°F7.9°C 41.4°F5.2°C 83% 9.2 mph SW14.8 kmh SW 12.7 mph20.4 kmh 29.93 in1013.5 mb - 0.00 in0.0 mm 0.00 in0.0 mm
03:30 AM 46.2°F7.9°C 41.6°F5.3°C 84% 9.2 mph SW14.8 kmh SW 11.5 mph18.5 kmh 29.93 in1013.5 mb - 0.00 in0.0 mm 0.00 in0.0 mm
03:40 AM 46.1°F7.8°C 41.5°F5.3°C 84% 11.5 mph SSW18.5 kmh SSW 15.0 mph24.1 kmh 29.94 in1013.9 mb - 0.00 in0.0 mm 0.00 in0.0 mm
03:50 AM 46.2°F7.9°C 42.2°F5.7°C 86% 9.2 mph SSW14.8 kmh SSW 11.5 mph18.5 kmh 29.94 in1013.9 mb - 0.01 in0.3 mm 0.01 in0.3 mm
04:00 AM 45.7°F7.6°C 42.1°F5.6°C 87% 9.2 mph SW14.8 kmh SW 11.5 mph18.5 kmh 29.94 in1013.9 mb - 0.01 in0.3 mm 0.02 in0.5 mm
04:10 AM 45.3°F7.4°C 41.7°F5.4°C 87% 8.1 mph SSW13.0 kmh SSW 12.7 mph20.4 kmh 29.94 in1013.9 mb - 0.00 in0.0 mm 0.02 in0.5 mm
04:20 AM 45.0°F7.2°C 41.7°F5.4°C 88% 9.2 mph SW14.8 kmh SW 13.8 mph22.2 kmh 29.94 in1013.9 mb - 0.00 in0.0 mm 0.02 in0.5 mm
04:30 AM 44.9°F7.2°C 41.6°F5.3°C 88% 5.8 mph SSW9.3 kmh SSW 11.5 mph18.5 kmh 29.94 in1013.9 mb - 0.00 in0.0 mm 0.02 in0.5 mm
04:40 AM 44.8°F7.1°C 41.5°F5.3°C 88% 11.5 mph S18.5 kmh S 18.4 mph29.6 kmh 29.95 in1014.2 mb - 0.00 in0.0 mm 0.02 in0.5 mm
04:50 AM 45.1°F7.3°C 41.7°F5.4°C 88% 6.9 mph S11.1 kmh S 17.3 mph27.8 kmh 29.96 in1014.6 mb - 0.00 in0.0 mm 0.02 in0.5 mm
05:00 AM 44.9°F7.2°C 41.3°F5.2°C 87% 10.4 mph S16.7 kmh S 17.3 mph27.8 kmh 29.97 in1014.9 mb - 0.03 in0.8 mm 0.04 in1.0 mm
05:10 AM 44.4°F6.9°C 41.1°F5.1°C 88% 10.4 mph SSW16.7 kmh SSW 19.6 mph31.5 kmh 29.98 in1015.2 mb - 0.00 in0.0 mm 0.04 in1.0 mm
05:20 AM 44.2°F6.8°C 40.8°F4.9°C 88% 6.9 mph S11.1 kmh S 12.7 mph20.4 kmh 29.98 in1015.2 mb - 0.00 in0.0 mm 0.04 in1.0 mm
05:30 AM 44.2°F6.8°C 41.2°F5.1°C 89% 8.1 mph SSW13.0 kmh SSW 11.5 mph18.5 kmh 29.99 in1015.6 mb - 0.00 in0.0 mm 0.04 in1.0 mm
05:40 AM 44.3°F6.8°C 41.3°F5.2°C 89% 9.2 mph S14.8 kmh S 16.1 mph25.9 kmh 30.00 in1015.9 mb - 0.01 in0.3 mm 0.05 in1.3 mm
05:50 AM 43.9°F6.6°C 40.6°F4.8°C 88% 6.9 mph S11.1 kmh S 16.1 mph25.9 kmh 29.99 in1015.6 mb - 0.00 in0.0 mm 0.05 in1.3 mm
06:00 AM 43.7°F6.5°C 40.4°F4.7°C 88% 6.9 mph S11.1 kmh S 17.3 mph27.8 kmh 30.00 in1015.9 mb - 0.00 in0.0 mm 0.05 in1.3 mm
06:10 AM 43.6°F6.4°C 40.3°F4.6°C 88% 6.9 mph S11.1 kmh S 11.5 mph18.5 kmh 30.00 in1015.9 mb - 0.00 in0.0 mm 0.05 in1.3 mm
06:20 AM 43.5°F6.4°C 40.2°F4.6°C 88% 6.9 mph SSW11.1 kmh SSW 11.5 mph18.5 kmh 30.01 in1016.3 mb - 0.00 in0.0 mm 0.05 in1.3 mm
06:30 AM 43.4°F6.3°C 40.1°F4.5°C 88% 6.9 mph S11.1 kmh S 15.0 mph24.1 kmh 30.01 in1016.3 mb - 0.00 in0.0 mm 0.05 in1.3 mm
06:40 AM 43.4°F6.3°C 40.1°F4.5°C 88% 9.2 mph SSW14.8 kmh SSW 16.1 mph25.9 kmh 30.02 in1016.6 mb - 0.00 in0.0 mm 0.05 in1.3 mm
06:50 AM 43.5°F6.4°C 40.2°F4.6°C 88% 6.9 mph SSW11.1 kmh SSW 8.1 mph13.0 kmh 30.03 in1016.9 mb - 0.00 in0.0 mm 0.05 in1.3 mm
07:00 AM 43.4°F6.3°C 40.1°F4.5°C 88% 5.8 mph SSW9.3 kmh SSW 10.4 mph16.7 kmh 30.03 in1016.9 mb - 0.00 in0.0 mm 0.05 in1.3 mm
07:10 AM 43.4°F6.3°C 40.1°F4.5°C 88% 4.6 mph SSW7.4 kmh SSW 17.3 mph27.8 kmh 30.04 in1017.3 mb - 0.00 in0.0 mm 0.05 in1.3 mm
07:20 AM 43.3°F6.3°C 40.0°F4.4°C 88% 5.8 mph SW9.3 kmh SW 8.1 mph13.0 kmh 30.05 in1017.6 mb - 0.00 in0.0 mm 0.05 in1.3 mm
07:30 AM 43.3°F6.3°C 40.3°F4.6°C 89% 5.8 mph SSW9.3 kmh SSW 15.0 mph24.1 kmh 30.06 in1017.9 mb - 0.00 in0.0 mm 0.05 in1.3 mm
07:40 AM 43.2°F6.2°C 40.2°F4.6°C 89% 8.1 mph S13.0 kmh S 13.8 mph22.2 kmh 30.07 in1018.3 mb - 0.02 in0.5 mm 0.07 in1.8 mm
07:50 AM 42.8°F6.0°C 39.5°F4.2°C 88% 5.8 mph SSW9.3 kmh SSW 6.9 mph11.1 kmh 30.07 in1018.3 mb - 0.00 in0.0 mm 0.07 in1.8 mm
08:00 AM 42.5°F5.8°C 39.5°F4.2°C 89% 4.6 mph SSW7.4 kmh SSW 9.2 mph14.8 kmh 30.07 in1018.3 mb - 0.00 in0.0 mm 0.07 in1.8 mm
08:10 AM 42.4°F5.8°C 39.1°F3.9°C 88% 5.8 mph SSW9.3 kmh SSW 9.2 mph14.8 kmh 30.09 in1019.0 mb - 0.00 in0.0 mm 0.07 in1.8 mm
08:20 AM 42.4°F5.8°C 39.1°F3.9°C 88% 3.5 mph SW5.6 kmh SW 5.8 mph9.3 kmh 30.09 in1019.0 mb - 0.00 in0.0 mm 0.07 in1.8 mm
08:30 AM 42.5°F5.8°C 39.2°F4.0°C 88% 3.5 mph S5.6 kmh S 8.1 mph13.0 kmh 30.11 in1019.6 mb - 0.00 in0.0 mm 0.07 in1.8 mm
08:40 AM 42.8°F6.0°C 39.5°F4.2°C 88% 5.8 mph SW9.3 kmh SW 6.9 mph11.1 kmh 30.12 in1020.0 mb - 0.00 in0.0 mm 0.07 in1.8 mm
08:50 AM 43.9°F6.6°C 40.2°F4.6°C 87% Calm Calm -- 30.12 in1020.0 mb - 0.00 in0.0 mm 0.07 in1.8 mm
09:00 AM 44.5°F6.9°C 40.0°F4.4°C 84% Calm Calm -- 30.13 in1020.3 mb - 0.00 in0.0 mm 0.07 in1.8 mm
09:10 AM 45.1°F7.3°C 39.3°F4.1°C 80% 8.1 mph SSW13.0 kmh SSW 11.5 mph18.5 kmh 30.13 in1020.3 mb - 0.00 in0.0 mm 0.07 in1.8 mm
09:20 AM 45.3°F7.4°C 37.2°F2.9°C 73% 11.5 mph S18.5 kmh S 18.4 mph29.6 kmh 30.14 in1020.7 mb - 0.00 in0.0 mm 0.07 in1.8 mm
09:30 AM 45.6°F7.6°C 37.4°F3.0°C 73% 9.2 mph S14.8 kmh S 16.1 mph25.9 kmh 30.14 in1020.7 mb - 0.00 in0.0 mm 0.07 in1.8 mm
09:40 AM 46.0°F7.8°C 37.5°F3.1°C 72% 8.1 mph S13.0 kmh S 15.0 mph24.1 kmh 30.14 in1020.7 mb - 0.00 in0.0 mm 0.07 in1.8 mm
09:50 AM 46.2°F7.9°C 37.7°F3.2°C 72% 9.2 mph S14.8 kmh S 12.7 mph20.4 kmh 30.14 in1020.7 mb - 0.00 in0.0 mm 0.07 in1.8 mm
10:00 AM 46.9°F8.3°C 37.6°F3.1°C 70% 6.9 mph S11.1 kmh S 8.1 mph13.0 kmh 30.15 in1021.0 mb - 0.00 in0.0 mm 0.07 in1.8 mm
10:10 AM 47.2°F8.4°C 36.8°F2.7°C 67% 9.2 mph S14.8 kmh S 15.0 mph24.1 kmh 30.15 in1021.0 mb - 0.00 in0.0 mm 0.07 in1.8 mm
10:20 AM 47.4°F8.6°C 37.4°F3.0°C 68% 8.1 mph S13.0 kmh S 12.7 mph20.4 kmh 30.16 in1021.3 mb - 0.00 in0.0 mm 0.07 in1.8 mm
10:30 AM 48.2°F9.0°C 37.7°F3.2°C 67% 6.9 mph S11.1 kmh S 8.1 mph13.0 kmh 30.16 in1021.3 mb - 0.00 in0.0 mm 0.07 in1.8 mm
10:40 AM 49.0°F9.4°C 37.3°F2.9°C 64% 9.2 mph S14.8 kmh S 12.7 mph20.4 kmh 30.17 in1021.7 mb - 0.00 in0.0 mm 0.07 in1.8 mm
10:50 AM 49.1°F9.5°C 37.1°F2.8°C 63% 6.9 mph SSE11.1 kmh SSE 12.7 mph20.4 kmh 30.17 in1021.7 mb - 0.00 in0.0 mm 0.07 in1.8 mm
11:00 AM 49.2°F9.6°C 35.9°F2.2°C 60% 9.2 mph SSE14.8 kmh SSE 12.7 mph20.4 kmh 30.18 in1022.0 mb - 0.00 in0.0 mm 0.07 in1.8 mm
11:10 AM 49.5°F9.7°C 35.7°F2.1°C 59% 8.1 mph SSE13.0 kmh SSE 12.7 mph20.4 kmh 30.18 in1022.0 mb - 0.00 in0.0 mm 0.07 in1.8 mm
11:20 AM 49.8°F9.9°C 36.1°F2.3°C 59% 9.2 mph S14.8 kmh S 11.5 mph18.5 kmh 30.18 in1022.0 mb - 0.00 in0.0 mm 0.07 in1.8 mm
11:30 AM 49.8°F9.9°C 36.5°F2.5°C 60% 10.4 mph S16.7 kmh S 17.3 mph27.8 kmh 30.18 in1022.0 mb - 0.00 in0.0 mm 0.07 in1.8 mm
11:40 AM 49.8°F9.9°C 36.1°F2.3°C 59% 9.2 mph S14.8 kmh S 13.8 mph22.2 kmh 30.18 in1022.0 mb - 0.00 in0.0 mm 0.07 in1.8 mm
11:50 AM 50.7°F10.4°C 36.0°F2.2°C 57% 4.6 mph S7.4 kmh S 18.4 mph29.6 kmh 30.18 in1022.0 mb - 0.00 in0.0 mm 0.07 in1.8 mm
12:00 PM 49.5°F9.7°C 33.1°F0.6°C 53% 13.8 mph S22.2 kmh S 16.1 mph25.9 kmh 30.18 in1022.0 mb - 0.00 in0.0 mm 0.07 in1.8 mm
12:10 PM 48.4°F9.1°C 32.5°F0.3°C 54% 11.5 mph SSE18.5 kmh SSE 12.7 mph20.4 kmh 30.19 in1022.4 mb - 0.00 in0.0 mm 0.07 in1.8 mm
12:20 PM 46.9°F8.3°C 36.9°F2.7°C 68% 5.8 mph SSE9.3 kmh SSE 9.2 mph14.8 kmh 30.19 in1022.4 mb - 0.00 in0.0 mm 0.07 in1.8 mm
12:30 PM 47.4°F8.6°C 37.4°F3.0°C 68% 3.5 mph SSE5.6 kmh SSE 4.6 mph7.4 kmh 30.19 in1022.4 mb - 0.00 in0.0 mm 0.07 in1.8 mm
12:40 PM 49.4°F9.7°C 36.9°F2.7°C 62% Calm Calm -- 30.18 in1022.0 mb - 0.01 in0.3 mm 0.08 in2.0 mm
12:50 PM 51.5°F10.8°C 36.3°F2.4°C 56% 6.9 mph S11.1 kmh S 10.4 mph16.7 kmh 30.18 in1022.0 mb - 0.00 in0.0 mm 0.08 in2.0 mm
01:00 PM 50.4°F10.2°C 34.9°F1.6°C 55% 6.9 mph S11.1 kmh S 9.2 mph14.8 kmh 30.18 in1022.0 mb - 0.00 in0.0 mm 0.08 in2.0 mm
01:10 PM 48.0°F8.9°C 36.8°F2.7°C 65% 8.1 mph SE13.0 kmh SE 11.5 mph18.5 kmh 30.20 in1022.7 mb - 0.00 in0.0 mm 0.08 in2.0 mm
01:20 PM 46.2°F7.9°C 37.0°F2.8°C 70% 6.9 mph SSE11.1 kmh SSE 9.2 mph14.8 kmh 30.20 in1022.7 mb - 0.00 in0.0 mm 0.08 in2.0 mm
01:30 PM 46.4°F8.0°C 37.5°F3.1°C 71% 6.9 mph SE11.1 kmh SE 10.4 mph16.7 kmh 30.20 in1022.7 mb - 0.00 in0.0 mm 0.08 in2.0 mm
01:40 PM 47.1°F8.4°C 37.5°F3.1°C 69% Calm Calm -- 30.20 in1022.7 mb - 0.00 in0.0 mm 0.08 in2.0 mm
01:50 PM 47.5°F8.6°C 37.5°F3.1°C 68% 6.9 mph S11.1 kmh S 11.5 mph18.5 kmh 30.20 in1022.7 mb - 0.00 in0.0 mm 0.08 in2.0 mm
02:00 PM 49.4°F9.7°C 38.5°F3.6°C 66% 6.9 mph S11.1 kmh S 12.7 mph20.4 kmh 30.20 in1022.7 mb - 0.00 in0.0 mm 0.08 in2.0 mm
02:10 PM 49.9°F9.9°C 37.8°F3.2°C 63% 6.9 mph SSE11.1 kmh SSE 11.5 mph18.5 kmh 30.20 in1022.7 mb - 0.00 in0.0 mm 0.08 in2.0 mm
02:20 PM 49.0°F9.4°C 37.0°F2.8°C 63% 11.5 mph SSE18.5 kmh SSE 16.1 mph25.9 kmh 30.20 in1022.7 mb - 0.00 in0.0 mm 0.08 in2.0 mm
02:30 PM 48.8°F9.3°C 37.6°F3.1°C 65% 8.1 mph S13.0 kmh S 10.4 mph16.7 kmh 30.21 in1023.0 mb - 0.00 in0.0 mm 0.08 in2.0 mm
02:40 PM 47.6°F8.7°C 36.4°F2.4°C 65% 9.2 mph S14.8 kmh S 17.3 mph27.8 kmh 30.21 in1023.0 mb - 0.00 in0.0 mm 0.08 in2.0 mm
02:50 PM 46.6°F8.1°C 35.8°F2.1°C 66% 6.9 mph S11.1 kmh S 9.2 mph14.8 kmh 30.21 in1023.0 mb - 0.00 in0.0 mm 0.08 in2.0 mm
03:00 PM 48.3°F9.1°C 36.3°F2.4°C 63% 1.1 mph S1.8 kmh S 10.4 mph16.7 kmh 30.21 in1023.0 mb - 0.00 in0.0 mm 0.08 in2.0 mm
03:10 PM 48.7°F9.3°C 36.7°F2.6°C 63% Calm Calm -- 30.22 in1023.4 mb - 0.00 in0.0 mm 0.08 in2.0 mm
03:20 PM 49.7°F9.8°C 38.0°F3.3°C 64% 1.1 mph S1.8 kmh S 11.5 mph18.5 kmh 30.23 in1023.7 mb - 0.00 in0.0 mm 0.08 in2.0 mm
03:30 PM 49.9°F9.9°C 36.9°F2.7°C 61% 2.3 mph S3.7 kmh S 9.2 mph14.8 kmh 30.23 in1023.7 mb - 0.00 in0.0 mm 0.08 in2.0 mm
03:40 PM 48.1°F8.9°C 36.5°F2.5°C 64% 11.5 mph S18.5 kmh S 17.3 mph27.8 kmh 30.23 in1023.7 mb - 0.00 in0.0 mm 0.08 in2.0 mm
03:50 PM 47.1°F8.4°C 37.5°F3.1°C 69% 3.5 mph ESE5.6 kmh ESE 6.9 mph11.1 kmh 30.24 in1024.0 mb - 0.00 in0.0 mm 0.08 in2.0 mm
04:00 PM 46.1°F7.8°C 37.9°F3.3°C 73% Calm Calm -- 30.24 in1024.0 mb - 0.00 in0.0 mm 0.08 in2.0 mm
04:10 PM 46.1°F7.8°C 37.3°F2.9°C 71% Calm Calm 3.5 mph5.6 kmh 30.24 in1024.0 mb - 0.00 in0.0 mm 0.08 in2.0 mm
04:20 PM 46.6°F8.1°C 37.3°F2.9°C 70% 1.1 mph S1.8 kmh S 3.5 mph5.6 kmh 30.24 in1024.0 mb - 0.00 in0.0 mm 0.08 in2.0 mm
04:30 PM 46.9°F8.3°C 37.6°F3.1°C 70% Calm Calm 5.8 mph9.3 kmh 30.24 in1024.0 mb - 0.00 in0.0 mm 0.08 in2.0 mm
04:40 PM 46.7°F8.2°C 36.7°F2.6°C 68% 5.8 mph SSE9.3 kmh SSE 12.7 mph20.4 kmh 30.25 in1024.4 mb - 0.00 in0.0 mm 0.08 in2.0 mm
04:50 PM 46.3°F7.9°C 36.7°F2.6°C 69% 4.6 mph S7.4 kmh S 5.8 mph9.3 kmh 30.25 in1024.4 mb - 0.00 in0.0 mm 0.08 in2.0 mm
05:00 PM 46.0°F7.8°C 36.7°F2.6°C 70% 3.5 mph S5.6 kmh S 11.5 mph18.5 kmh 30.26 in1024.7 mb - 0.00 in0.0 mm 0.08 in2.0 mm
05:10 PM 45.1°F7.3°C 35.9°F2.2°C 70% 2.3 mph SSW3.7 kmh SSW 4.6 mph7.4 kmh 30.26 in1024.7 mb - 0.00 in0.0 mm 0.08 in2.0 mm
05:20 PM 44.3°F6.8°C 35.5°F1.9°C 71% Calm Calm -- 30.26 in1024.7 mb - 0.00 in0.0 mm 0.08 in2.0 mm
05:30 PM 44.1°F6.7°C 35.3°F1.8°C 71% Calm Calm -- 30.27 in1025.1 mb - 0.00 in0.0 mm 0.08 in2.0 mm
05:40 PM 44.0°F6.7°C 34.8°F1.6°C 70% Calm Calm -- 30.27 in1025.1 mb - 0.00 in0.0 mm 0.08 in2.0 mm
05:50 PM 43.8°F6.6°C 34.6°F1.4°C 70% Calm Calm -- 30.27 in1025.1 mb - 0.00 in0.0 mm 0.08 in2.0 mm
06:00 PM 43.5°F6.4°C 34.4°F1.3°C 70% 1.1 mph S1.8 kmh S 3.5 mph5.6 kmh 30.27 in1025.1 mb - 0.00 in0.0 mm 0.08 in2.0 mm
06:10 PM 43.2°F6.2°C 34.0°F1.1°C 70% Calm Calm -- 30.28 in1025.4 mb - 0.00 in0.0 mm 0.08 in2.0 mm
06:20 PM 42.9°F6.1°C 34.1°F1.2°C 71% Calm Calm -- 30.28 in1025.4 mb - 0.00 in0.0 mm 0.08 in2.0 mm
06:30 PM 42.5°F5.8°C 33.8°F1.0°C 71% Calm Calm -- 30.28 in1025.4 mb - 0.00 in0.0 mm 0.08 in2.0 mm
06:40 PM 42.1°F5.6°C 35.1°F1.7°C 76% Calm Calm -- 30.29 in1025.7 mb - 0.00 in0.0 mm 0.08 in2.0 mm
06:50 PM 41.8°F5.4°C 34.1°F1.2°C 74% Calm Calm -- 30.29 in1025.7 mb - 0.00 in0.0 mm 0.08 in2.0 mm
07:00 PM 41.6°F5.3°C 33.9°F1.1°C 74% Calm Calm -- 30.30 in1026.1 mb - 0.00 in0.0 mm 0.08 in2.0 mm
07:10 PM 41.4°F5.2°C 33.7°F0.9°C 74% Calm Calm -- 30.30 in1026.1 mb - 0.00 in0.0 mm 0.08 in2.0 mm
07:20 PM 41.2°F5.1°C 34.2°F1.2°C 76% Calm Calm -- 30.30 in1026.1 mb - 0.00 in0.0 mm 0.08 in2.0 mm
07:30 PM 41.0°F5.0°C 34.0°F1.1°C 76% Calm Calm -- 30.30 in1026.1 mb - 0.00 in0.0 mm 0.08 in2.0 mm
07:40 PM 41.1°F5.1°C 34.8°F1.6°C 78% Calm Calm -- 30.30 in1026.1 mb - 0.00 in0.0 mm 0.08 in2.0 mm
07:50 PM 41.2°F5.1°C 35.2°F1.8°C 79% Calm Calm -- 30.30 in1026.1 mb - 0.00 in0.0 mm 0.08 in2.0 mm
08:00 PM 41.2°F5.1°C 35.2°F1.8°C 79% Calm Calm -- 30.31 in1026.4 mb - 0.00 in0.0 mm 0.08 in2.0 mm
08:10 PM 41.2°F5.1°C 35.5°F1.9°C 80% Calm Calm -- 30.31 in1026.4 mb - 0.00 in0.0 mm 0.08 in2.0 mm
08:20 PM 41.2°F5.1°C 35.5°F1.9°C 80% Calm Calm 2.3 mph3.7 kmh 30.31 in1026.4 mb - 0.00 in0.0 mm 0.08 in2.0 mm
08:30 PM 41.1°F5.1°C 35.7°F2.1°C 81% Calm Calm -- 30.32 in1026.8 mb - 0.00 in0.0 mm 0.08 in2.0 mm
08:40 PM 41.0°F5.0°C 35.6°F2.0°C 81% Calm Calm 3.5 mph5.6 kmh 30.31 in1026.4 mb - 0.00 in0.0 mm 0.08 in2.0 mm
08:50 PM 40.9°F4.9°C 35.5°F1.9°C 81% 1.1 mph SSW1.8 kmh SSW 4.6 mph7.4 kmh 30.32 in1026.8 mb - 0.00 in0.0 mm 0.08 in2.0 mm
09:00 PM 40.9°F4.9°C 35.5°F1.9°C 81% Calm Calm -- 30.32 in1026.8 mb - 0.00 in0.0 mm 0.08 in2.0 mm
09:10 PM 41.0°F5.0°C 35.6°F2.0°C 81% Calm Calm -- 30.32 in1026.8 mb - 0.00 in0.0 mm 0.08 in2.0 mm
09:20 PM 41.0°F5.0°C 36.0°F2.2°C 82% Calm Calm -- 30.32 in1026.8 mb - 0.00 in0.0 mm 0.08 in2.0 mm
09:30 PM 41.0°F5.0°C 35.9°F2.2°C 82% Calm Calm -- 30.32 in1026.8 mb - 0.00 in0.0 mm 0.08 in2.0 mm
09:40 PM 41.0°F5.0°C 35.9°F2.2°C 82% Calm Calm -- 30.32 in1026.8 mb - 0.00 in0.0 mm 0.08 in2.0 mm
09:50 PM 41.0°F5.0°C 35.9°F2.2°C 82% Calm Calm -- 30.32 in1026.8 mb - 0.00 in0.0 mm 0.08 in2.0 mm
10:00 PM 41.0°F5.0°C 35.9°F2.2°C 82% 2.3 mph SW3.7 kmh SW 3.5 mph5.6 kmh 30.32 in1026.8 mb - 0.00 in0.0 mm 0.08 in2.0 mm
10:10 PM 40.8°F4.9°C 35.7°F2.1°C 82% Calm Calm -- 30.32 in1026.8 mb - 0.00 in0.0 mm 0.08 in2.0 mm
10:20 PM 40.6°F4.8°C 35.5°F1.9°C 82% Calm Calm -- 30.32 in1026.8 mb - 0.00 in0.0 mm 0.08 in2.0 mm
10:30 PM 40.4°F4.7°C 35.6°F2.0°C 83% Calm Calm -- 30.32 in1026.8 mb - 0.00 in0.0 mm 0.08 in2.0 mm
10:40 PM 40.3°F4.6°C 35.5°F1.9°C 83% 2.3 mph SW3.7 kmh SW 8.1 mph13.0 kmh 30.32 in1026.8 mb - 0.00 in0.0 mm 0.08 in2.0 mm
10:50 PM 40.1°F4.5°C 35.7°F2.1°C 84% 1.1 mph SW1.8 kmh SW 4.6 mph7.4 kmh 30.32 in1026.8 mb - 0.00 in0.0 mm 0.08 in2.0 mm
11:00 PM 39.9°F4.4°C 35.5°F1.9°C 84% Calm Calm 2.3 mph3.7 kmh 30.31 in1026.4 mb - 0.00 in0.0 mm 0.08 in2.0 mm
11:10 PM 39.8°F4.3°C 35.3°F1.8°C 84% 1.1 mph SW1.8 kmh SW 3.5 mph5.6 kmh 30.31 in1026.4 mb - 0.00 in0.0 mm 0.08 in2.0 mm
11:20 PM 39.7°F4.3°C 35.3°F1.8°C 84% Calm Calm -- 30.31 in1026.4 mb - 0.00 in0.0 mm 0.08 in2.0 mm
11:30 PM 39.6°F4.2°C 35.5°F1.9°C 85% Calm Calm -- 30.32 in1026.8 mb - 0.00 in0.0 mm 0.08 in2.0 mm
11:40 PM 39.5°F4.2°C 35.4°F1.9°C 85% Calm Calm -- 30.32 in1026.8 mb - 0.00 in0.0 mm 0.08 in2.0 mm
11:50 PM 39.5°F4.2°C 35.4°F1.9°C 85% Calm Calm -- 30.32 in1026.8 mb - 0.00 in0.0 mm 0.08 in2.0 mm